Time;durP1;ratioP1;P1;durP2;ratioP2;P2;SDS_P1;SDS_P2;PMS_P1;PMS_P2;Temp;Humidity;BMP_temperature;BMP_pressure;BME280_temperature;BME280_humidity;BME280_pressure;Samples;Min_cycle;Max_cycle;Signal;HPM_P1;HPM_P2
2021/12/26 00:02:00;;;;;;;44.28;17.48;;;10.30;99.90;;;;;;4209892;28;20139;-79
2021/12/26 00:04:04;;;;;;;46.45;18.00;;;10.30;99.90;;;;;;4196458;28;20052;-79
2021/12/26 00:06:11;;;;;;;50.75;17.90;;;10.30;99.90;;;;;;4217099;28;20723;-78
2021/12/26 00:08:13;;;;;;;51.38;17.58;;;10.30;99.90;;;;;;4226843;28;20048;-79
2021/12/26 00:10:18;;;;;;;42.75;16.98;;;10.30;99.90;;;;;;4226560;28;20040;-80
2021/12/26 00:12:20;;;;;;;41.15;16.85;;;10.20;99.90;;;;;;4242434;28;20075;-78
2021/12/26 00:14:22;;;;;;;46.60;16.60;;;10.30;99.90;;;;;;4206579;28;20087;-80
2021/12/26 00:16:24;;;;;;;39.50;17.08;;;10.30;99.90;;;;;;4208313;28;20056;-79
2021/12/26 00:18:26;;;;;;;53.78;16.80;;;10.30;99.90;;;;;;4181506;28;20068;-79
2021/12/26 00:20:28;;;;;;;46.67;17.17;;;10.30;99.90;;;;;;4211920;28;20048;-80
2021/12/26 00:22:30;;;;;;;46.22;15.95;;;10.30;99.90;;;;;;4181930;28;20528;-80
2021/12/26 00:24:33;;;;;;;44.25;15.73;;;10.30;99.90;;;;;;4181645;28;20149;-79
2021/12/26 00:26:37;;;;;;;46.25;16.85;;;10.30;99.90;;;;;;4183820;28;20076;-79
2021/12/26 00:28:39;;;;;;;39.05;15.50;;;10.30;99.90;;;;;;4212004;28;20040;-78
2021/12/26 00:30:42;;;;;;;47.03;15.60;;;10.30;99.90;;;;;;4198366;28;20049;-80
2021/12/26 00:32:45;;;;;;;49.78;16.73;;;10.30;99.90;;;;;;4197219;28;20045;-79
2021/12/26 00:34:50;;;;;;;43.55;15.65;;;10.30;99.90;;;;;;4196835;28;20087;-79
2021/12/26 00:36:52;;;;;;;39.47;15.02;;;10.30;99.90;;;;;;4215456;28;20072;-80
2021/12/26 00:38:54;;;;;;;40.53;14.27;;;10.30;99.90;;;;;;4215979;28;20071;-80
2021/12/26 00:40:56;;;;;;;34.97;14.10;;;10.30;99.90;;;;;;4215582;28;20111;-79
2021/12/26 00:42:58;;;;;;;37.65;14.10;;;10.30;99.90;;;;;;4195176;28;20500;-79
2021/12/26 00:45:00;;;;;;;39.22;14.18;;;10.30;99.90;;;;;;4209788;28;20044;-80
2021/12/26 00:47:02;;;;;;;41.80;13.95;;;10.30;99.90;;;;;;4198173;28;20048;-79
2021/12/26 00:49:04;;;;;;;41.13;13.25;;;10.30;99.90;;;;;;4196605;28;20052;-79
2021/12/26 00:51:06;;;;;;;33.55;13.18;;;10.30;99.90;;;;;;4199928;28;20473;-80
2021/12/26 00:53:09;;;;;;;35.35;13.23;;;10.30;99.90;;;;;;4188362;28;20076;-79
2021/12/26 00:55:13;;;;;;;35.30;13.60;;;10.30;99.90;;;;;;4198244;28;20511;-79
2021/12/26 00:57:15;;;;;;;38.40;12.43;;;10.30;99.90;;;;;;4194713;28;20182;-79
2021/12/26 00:59:17;;;;;;;39.55;13.55;;;10.30;99.90;;;;;;4197734;28;20318;-79
2021/12/26 01:01:19;;;;;;;40.47;13.77;;;10.30;99.90;;;;;;4197294;28;20048;-77
2021/12/26 01:03:22;;;;;;;36.70;13.95;;;10.30;99.90;;;;;;4194482;28;20055;-79
2021/12/26 01:05:24;;;;;;;35.88;12.82;;;10.30;99.90;;;;;;4183037;28;20100;-79
2021/12/26 01:09:29;;;;;;;37.67;13.27;;;10.30;99.90;;;;;;4183139;28;20087;-79
2021/12/26 01:11:40;;;;;;;38.38;14.23;;;10.30;99.90;;;;;;4195999;28;20086;-80
2021/12/26 01:13:44;;;;;;;41.70;13.40;;;10.30;99.90;;;;;;4199927;28;20106;-80
2021/12/26 01:15:48;;;;;;;48.53;13.50;;;10.30;99.90;;;;;;4198846;28;20044;-78
2021/12/26 01:17:56;;;;;;;42.00;13.82;;;10.30;99.90;;;;;;4201495;28;20055;-78
2021/12/26 01:19:58;;;;;;;43.65;12.43;;;10.30;99.90;;;;;;4217736;28;20530;-82
2021/12/26 01:22:00;;;;;;;39.08;12.75;;;10.30;99.90;;;;;;4217522;28;20056;-78
2021/12/26 01:24:07;;;;;;;38.15;13.00;;;10.30;99.90;;;;;;4203899;28;20101;-79
2021/12/26 01:26:09;;;;;;;40.55;12.60;;;10.30;99.90;;;;;;4187323;28;20088;-80
2021/12/26 01:28:11;;;;;;;41.45;13.02;;;10.30;99.90;;;;;;4221242;28;20048;-80
2021/12/26 01:30:13;;;;;;;44.72;13.35;;;10.30;99.90;;;;;;4230717;28;20079;-80
2021/12/26 01:32:16;;;;;;;38.58;12.98;;;10.30;99.90;;;;;;4229325;28;20412;-80
2021/12/26 01:34:18;;;;;;;37.78;13.93;;;10.30;99.90;;;;;;4197315;28;20063;-79
2021/12/26 01:36:20;;;;;;;47.13;14.07;;;10.30;99.90;;;;;;4195762;28;20052;-81
2021/12/26 01:38:22;;;;;;;34.35;11.68;;;10.30;99.90;;;;;;4202088;28;20456;-80
2021/12/26 01:40:25;;;;;;;42.92;13.98;;;10.30;99.90;;;;;;4197117;28;20040;-80
2021/12/26 01:42:27;;;;;;;42.70;12.82;;;10.30;99.90;;;;;;4200285;28;20140;-81
2021/12/26 01:44:31;;;;;;;37.88;12.57;;;10.20;99.90;;;;;;4199031;28;20076;-79
2021/12/26 01:46:33;;;;;;;41.30;13.05;;;10.20;99.90;;;;;;4187327;28;20072;-80
2021/12/26 01:48:35;;;;;;;35.55;12.05;;;10.20;99.90;;;;;;4203422;28;20097;-79
2021/12/26 01:50:37;;;;;;;34.88;12.40;;;10.20;99.90;;;;;;4214023;28;20047;-79
2021/12/26 01:52:40;;;;;;;33.15;12.35;;;10.30;99.90;;;;;;4207763;28;20044;-79
2021/12/26 01:54:59;;;;;;;38.83;12.65;;;10.20;99.90;;;;;;4201265;28;20071;-79
2021/12/26 01:57:04;;;;;;;42.08;12.40;;;10.20;99.90;;;;;;4197064;28;20072;-79
2021/12/26 01:59:08;;;;;;;37.53;11.65;;;10.20;99.90;;;;;;4181805;28;20045;-79
2021/12/26 02:01:12;;;;;;;38.90;12.60;;;10.20;99.90;;;;;;4180004;28;20076;-80
2021/12/26 02:03:15;;;;;;;36.50;11.73;;;10.20;99.90;;;;;;4188764;28;20068;-79
2021/12/26 02:05:17;;;;;;;40.28;12.35;;;10.30;99.90;;;;;;4208833;28;20127;-80
2021/12/26 02:07:19;;;;;;;35.03;11.45;;;10.30;99.90;;;;;;4196759;28;20064;-78
2021/12/26 02:09:21;;;;;;;28.85;11.43;;;10.30;99.90;;;;;;4180693;28;20076;-79
2021/12/26 02:11:23;;;;;;;36.38;11.77;;;10.30;99.90;;;;;;4183070;28;20077;-81
2021/12/26 02:13:26;;;;;;;35.58;11.43;;;10.30;99.90;;;;;;4196280;28;20152;-80
2021/12/26 02:15:28;;;;;;;40.38;11.60;;;10.30;99.90;;;;;;4196805;28;20044;-79
2021/12/26 02:17:30;;;;;;;40.38;11.43;;;10.30;99.90;;;;;;4183232;28;20499;-79
2021/12/26 02:19:32;;;;;;;38.13;11.98;;;10.30;99.90;;;;;;4204520;28;20082;-78
2021/12/26 02:24:11;;;;;;;31.55;11.07;;;10.40;99.90;;;;;;4181050;28;20084;-79
2021/12/26 02:28:34;;;;;;;30.08;9.20;;;10.40;99.90;;;;;;4183153;28;20076;-78
2021/12/26 02:30:36;;;;;;;25.50;9.48;;;10.40;99.90;;;;;;4165695;28;20080;-79
2021/12/26 02:32:38;;;;;;;28.38;8.80;;;10.40;99.90;;;;;;4174465;28;20076;-79
2021/12/26 02:34:41;;;;;;;51.10;10.43;;;10.40;99.90;;;;;;4180338;28;20076;-79
2021/12/26 02:36:43;;;;;;;35.50;9.02;;;10.40;99.90;;;;;;4167912;28;20267;-78
2021/12/26 02:38:45;;;;;;;39.67;9.82;;;10.40;99.90;;;;;;4188458;28;20091;-80
2021/12/26 02:40:48;;;;;;;32.28;9.27;;;10.40;99.90;;;;;;4187894;28;20081;-80
2021/12/26 02:42:50;;;;;;;35.85;10.27;;;10.40;99.90;;;;;;4167114;28;20121;-79
2021/12/26 02:44:54;;;;;;;34.58;9.52;;;10.40;99.90;;;;;;4179429;28;20183;-79
2021/12/26 02:46:56;;;;;;;34.03;8.93;;;10.40;99.90;;;;;;4185318;28;20111;-79
2021/12/26 02:48:58;;;;;;;34.70;9.05;;;10.30;99.90;;;;;;4165949;28;20045;-80
2021/12/26 02:51:01;;;;;;;32.40;9.32;;;10.30;99.90;;;;;;4165111;28;20054;-79
2021/12/26 02:53:06;;;;;;;35.15;8.13;;;10.30;99.90;;;;;;4162666;28;20480;-79
2021/12/26 02:55:11;;;;;;;33.22;9.18;;;10.30;99.90;;;;;;4198450;28;20431;-80
2021/12/26 02:57:13;;;;;;;33.67;7.97;;;10.30;99.90;;;;;;4213015;28;20052;-80
2021/12/26 02:59:14;;;;;;;32.60;9.27;;;10.30;99.90;;;;;;4213190;28;20295;-80
2021/12/26 03:01:23;;;;;;;24.13;7.53;;;10.30;99.90;;;;;;4196873;28;20142;-79
2021/12/26 03:03:26;;;;;;;28.88;7.70;;;10.30;99.90;;;;;;4196435;28;20102;-80
2021/12/26 03:05:30;;;;;;;23.48;7.63;;;10.40;99.90;;;;;;4208311;28;20815;-79
2021/12/26 03:07:31;;;;;;;23.40;7.53;;;10.40;99.90;;;;;;4229824;28;20143;-79
2021/12/26 03:09:43;;;;;;;28.30;7.07;;;10.40;99.90;;;;;;4213983;28;20740;-79
2021/12/26 03:11:47;;;;;;;29.23;7.05;;;10.40;99.90;;;;;;4228789;28;20068;-79
2021/12/26 03:13:49;;;;;;;44.58;7.57;;;10.40;99.90;;;;;;4230415;28;20131;-79
2021/12/26 03:15:51;;;;;;;27.90;6.90;;;10.40;99.90;;;;;;4219880;28;20044;-81
2021/12/26 03:17:53;;;;;;;24.60;7.00;;;10.40;99.90;;;;;;4213323;28;20059;-79
2021/12/26 03:19:55;;;;;;;26.25;6.32;;;10.40;99.90;;;;;;4213279;28;20044;-80
2021/12/26 03:21:57;;;;;;;31.33;6.20;;;10.40;99.90;;;;;;4212338;28;20554;-80
2021/12/26 03:23:59;;;;;;;33.90;6.97;;;10.40;99.90;;;;;;4213123;28;20086;-79
2021/12/26 03:26:04;;;;;;;28.33;5.85;;;10.40;99.90;;;;;;4197543;28;20480;-82
2021/12/26 03:28:07;;;;;;;33.13;7.20;;;10.40;99.90;;;;;;4209323;28;20519;-80
2021/12/26 03:30:12;;;;;;;31.17;6.30;;;10.40;99.90;;;;;;4204617;28;20123;-80
2021/12/26 03:32:14;;;;;;;28.25;6.75;;;10.40;99.90;;;;;;4198815;28;20048;-79
2021/12/26 03:34:16;;;;;;;32.10;6.95;;;10.40;99.90;;;;;;4199637;28;20057;-81
2021/12/26 03:36:18;;;;;;;34.60;6.85;;;10.40;99.90;;;;;;4199842;28;20084;-86
2021/12/26 03:38:21;;;;;;;22.42;6.13;;;10.40;99.90;;;;;;4212913;28;20463;-79
2021/12/26 03:40:24;;;;;;;27.05;6.38;;;10.30;99.90;;;;;;4229332;28;20048;-81
2021/12/26 03:42:26;;;;;;;27.45;6.82;;;10.40;99.90;;;;;;4219137;27;20071;-79
2021/12/26 03:44:28;;;;;;;26.58;6.72;;;10.40;99.90;;;;;;4221198;28;20518;-78
2021/12/26 03:46:29;;;;;;;27.05;5.68;;;10.40;99.90;;;;;;4229631;28;20075;-80
2021/12/26 03:48:32;;;;;;;24.17;6.35;;;10.40;99.90;;;;;;4229575;28;20051;-79
2021/12/26 03:50:34;;;;;;;30.45;7.25;;;10.40;99.90;;;;;;4225707;28;20094;-79
2021/12/26 03:52:36;;;;;;;25.30;6.25;;;10.40;99.90;;;;;;4221335;28;20043;-79
2021/12/26 03:54:38;;;;;;;29.73;6.22;;;10.30;99.90;;;;;;4215924;28;20054;-80
2021/12/26 03:56:40;;;;;;;19.58;5.40;;;10.30;99.90;;;;;;4214886;28;20527;-79
2021/12/26 03:58:42;;;;;;;35.72;5.85;;;10.30;99.90;;;;;;4218377;28;20127;-79
2021/12/26 04:00:45;;;;;;;30.70;6.07;;;10.40;99.90;;;;;;4215693;28;20812;-79
2021/12/26 04:02:48;;;;;;;28.30;6.38;;;10.30;99.90;;;;;;4215757;28;20139;-79
2021/12/26 04:04:50;;;;;;;37.78;6.43;;;10.30;99.90;;;;;;4214533;28;20048;-80
2021/12/26 04:06:52;;;;;;;25.98;5.75;;;10.40;99.90;;;;;;4224482;28;20134;-79
2021/12/26 04:08:54;;;;;;;28.65;5.47;;;10.40;99.90;;;;;;4233107;28;20048;-78
2021/12/26 04:10:56;;;;;;;30.67;7.25;;;10.40;99.90;;;;;;4223710;28;20134;-80
2021/12/26 04:12:58;;;;;;;23.75;5.53;;;10.40;99.90;;;;;;4215599;28;20051;-79
2021/12/26 04:15:06;;;;;;;29.08;5.70;;;10.40;99.90;;;;;;4215620;28;20072;-79
2021/12/26 04:17:08;;;;;;;35.50;5.57;;;10.40;99.90;;;;;;4215553;28;20144;-79
2021/12/26 04:19:10;;;;;;;28.83;5.32;;;10.40;99.90;;;;;;4217774;28;20125;-79
2021/12/26 04:21:12;;;;;;;21.98;4.80;;;10.40;99.90;;;;;;4232373;28;20075;-79
2021/12/26 04:23:15;;;;;;;22.05;5.40;;;10.40;99.90;;;;;;4229081;28;20486;-78
2021/12/26 04:25:18;;;;;;;21.13;4.90;;;10.40;99.90;;;;;;4211844;28;20507;-80
2021/12/26 04:27:21;;;;;;;21.40;5.63;;;10.40;99.90;;;;;;4215139;28;20056;-79
2021/12/26 04:29:23;;;;;;;29.35;6.05;;;10.40;99.90;;;;;;4210525;28;20040;-80
2021/12/26 04:31:25;;;;;;;35.85;5.38;;;10.40;99.90;;;;;;4211288;28;20079;-80
2021/12/26 04:33:27;;;;;;;30.42;5.40;;;10.30;99.90;;;;;;4205669;28;20518;-79
2021/12/26 04:35:30;;;;;;;26.75;6.28;;;10.40;99.90;;;;;;4228806;28;20086;-79
2021/12/26 04:37:34;;;;;;;26.35;5.85;;;10.30;99.90;;;;;;4212534;28;20048;-79
2021/12/26 04:39:35;;;;;;;28.13;6.13;;;10.30;99.90;;;;;;4198256;28;20146;-79
2021/12/26 04:41:37;;;;;;;22.02;4.90;;;10.30;99.90;;;;;;4210849;28;20056;-79
2021/12/26 04:43:39;;;;;;;29.25;5.13;;;10.30;99.90;;;;;;4214856;28;20060;-80
2021/12/26 04:45:41;;;;;;;35.47;5.35;;;10.20;99.90;;;;;;4214896;28;20048;-81
2021/12/26 04:47:50;;;;;;;28.77;5.65;;;10.20;99.90;;;;;;4214839;28;20422;-79
2021/12/26 04:49:51;;;;;;;33.45;5.50;;;10.20;99.90;;;;;;4214882;28;20449;-81
2021/12/26 04:51:53;;;;;;;31.38;5.68;;;10.20;99.90;;;;;;4213396;28;20086;-79
2021/12/26 04:53:55;;;;;;;28.52;4.95;;;10.20;99.90;;;;;;4214276;28;20124;-81
2021/12/26 04:55:57;;;;;;;25.70;5.30;;;10.10;99.90;;;;;;4214400;28;20044;-78
2021/12/26 04:58:00;;;;;;;27.33;5.63;;;10.10;99.90;;;;;;4214938;28;20056;-80
2021/12/26 05:00:05;;;;;;;23.08;4.63;;;10.20;99.90;;;;;;4221402;28;20136;-80
2021/12/26 05:02:09;;;;;;;27.00;5.60;;;10.20;99.90;;;;;;4219180;28;20081;-78
2021/12/26 05:04:11;;;;;;;28.52;6.03;;;10.10;99.90;;;;;;4215987;28;20141;-79
2021/12/26 05:06:14;;;;;;;25.85;5.20;;;10.10;99.90;;;;;;4227805;28;20044;-78
2021/12/26 05:08:16;;;;;;;33.88;5.82;;;10.00;99.90;;;;;;4232696;28;20537;-78
2021/12/26 05:10:18;;;;;;;27.42;5.78;;;10.10;99.90;;;;;;4231727;28;20048;-81
2021/12/26 05:12:20;;;;;;;30.15;6.03;;;10.10;99.90;;;;;;4220423;28;20051;-80
2021/12/26 05:14:22;;;;;;;25.00;5.38;;;10.20;99.90;;;;;;4222120;28;20098;-79
2021/12/26 05:16:23;;;;;;;22.90;5.85;;;10.20;99.90;;;;;;4212945;28;20052;-77
2021/12/26 05:18:26;;;;;;;32.85;6.22;;;10.20;99.90;;;;;;4223046;28;20418;-79
2021/12/26 05:20:29;;;;;;;31.02;5.32;;;10.20;99.90;;;;;;4231265;28;20078;-80
2021/12/26 05:22:31;;;;;;;25.15;5.53;;;10.20;99.90;;;;;;4199641;28;20151;-79
2021/12/26 05:24:33;;;;;;;25.73;5.55;;;10.10;99.90;;;;;;4197399;28;20435;-80
2021/12/26 05:26:35;;;;;;;32.47;5.78;;;10.20;99.90;;;;;;4197279;28;20500;-80
2021/12/26 05:28:37;;;;;;;26.33;6.40;;;10.20;99.90;;;;;;4204530;28;20071;-80
2021/12/26 05:30:39;;;;;;;35.03;7.03;;;10.20;99.90;;;;;;4213425;28;20587;-79
2021/12/26 05:32:42;;;;;;;32.38;6.43;;;10.30;99.90;;;;;;4203989;28;20119;-80
2021/12/26 05:34:44;;;;;;;30.65;6.13;;;10.30;99.90;;;;;;4209979;28;20120;-79
2021/12/26 05:36:47;;;;;;;24.63;6.75;;;10.30;99.90;;;;;;4231373;28;20152;-82
2021/12/26 05:38:49;;;;;;;26.67;5.90;;;10.20;99.90;;;;;;4231776;28;20640;-81
2021/12/26 05:40:50;;;;;;;30.75;6.60;;;10.20;99.90;;;;;;4229200;28;20131;-79
2021/12/26 05:42:52;;;;;;;31.73;6.72;;;10.20;99.90;;;;;;4215113;28;20083;-78
2021/12/26 05:44:54;;;;;;;31.63;6.85;;;10.20;99.90;;;;;;4232365;28;20480;-80
2021/12/26 05:46:56;;;;;;;30.20;6.05;;;10.20;99.90;;;;;;4217551;28;20045;-79
2021/12/26 05:49:03;;;;;;;36.75;7.15;;;10.20;99.90;;;;;;4200281;28;20604;-80
2021/12/26 05:51:05;;;;;;;35.25;7.28;;;10.20;99.90;;;;;;4203178;28;20128;-79
2021/12/26 05:53:07;;;;;;;33.83;6.85;;;10.20;99.90;;;;;;4218717;28;20079;-80
2021/12/26 05:55:10;;;;;;;29.48;6.60;;;10.20;99.90;;;;;;4230759;28;20079;-80
2021/12/26 05:57:12;;;;;;;29.98;6.93;;;10.20;99.90;;;;;;4230847;28;20051;-79
2021/12/26 05:59:14;;;;;;;29.92;6.45;;;10.20;99.90;;;;;;4230912;28;20047;-79
2021/12/26 06:01:16;;;;;;;20.55;5.90;;;10.30;99.90;;;;;;4215273;28;20048;-79
2021/12/26 06:03:18;;;;;;;41.45;6.88;;;10.30;99.90;;;;;;4229308;28;20044;-80
2021/12/26 06:05:20;;;;;;;35.72;5.85;;;10.30;99.90;;;;;;4224767;28;20074;-79
2021/12/26 06:07:23;;;;;;;34.08;5.60;;;10.30;99.90;;;;;;4231416;28;20051;-79
2021/12/26 06:09:26;;;;;;;35.40;6.68;;;10.30;99.90;;;;;;4231755;28;20048;-82
2021/12/26 06:11:27;;;;;;;30.73;6.55;;;10.30;99.90;;;;;;4225522;28;20075;-83
2021/12/26 06:13:31;;;;;;;29.13;6.47;;;10.30;99.90;;;;;;4224113;28;20134;-80
2021/12/26 06:15:33;;;;;;;27.90;6.60;;;10.30;99.90;;;;;;4212899;28;20047;-79
2021/12/26 06:17:35;;;;;;;23.30;6.32;;;10.30;99.90;;;;;;4214757;28;20067;-79
2021/12/26 06:19:37;;;;;;;24.40;4.97;;;10.20;99.90;;;;;;4222357;28;20503;-78
2021/12/26 06:21:39;;;;;;;33.03;5.15;;;10.20;99.90;;;;;;4213576;28;20051;-79
2021/12/26 06:23:41;;;;;;;24.38;5.25;;;10.20;99.90;;;;;;4213480;28;20051;-80
2021/12/26 06:25:43;;;;;;;28.30;4.82;;;10.10;99.90;;;;;;4216134;28;20071;-79
2021/12/26 06:27:45;;;;;;;34.53;5.40;;;10.10;99.90;;;;;;4213132;28;20055;-80
2021/12/26 06:29:47;;;;;;;29.45;5.78;;;10.00;99.90;;;;;;4196471;28;20057;-79
2021/12/26 06:31:49;;;;;;;33.90;4.60;;;10.00;99.90;;;;;;4198328;28;20132;-79
2021/12/26 06:33:51;;;;;;;34.58;5.32;;;10.00;99.90;;;;;;4206682;28;20079;-79
2021/12/26 06:35:52;;;;;;;35.65;5.55;;;9.90;99.90;;;;;;4229903;28;20145;-78
2021/12/26 06:37:55;;;;;;;32.42;5.18;;;9.90;99.90;;;;;;4231178;27;20131;-80
2021/12/26 06:39:59;;;;;;;28.65;5.05;;;9.90;99.90;;;;;;4223729;28;20074;-77
2021/12/26 06:42:01;;;;;;;25.98;4.78;;;9.90;99.90;;;;;;4212864;28;20052;-80
2021/12/26 06:44:03;;;;;;;29.95;5.65;;;10.00;99.90;;;;;;4213109;28;20068;-79
2021/12/26 06:46:06;;;;;;;26.30;4.35;;;10.00;99.90;;;;;;4212795;28;20080;-78
2021/12/26 06:48:08;;;;;;;33.75;5.18;;;10.00;99.90;;;;;;4198025;28;20059;-79
2021/12/26 06:50:10;;;;;;;32.67;5.28;;;10.00;99.90;;;;;;4221471;28;20750;-79
2021/12/26 06:52:12;;;;;;;31.23;5.47;;;10.00;99.90;;;;;;4213239;28;20072;-78
2021/12/26 06:54:14;;;;;;;28.60;4.95;;;10.00;99.90;;;;;;4212234;28;20048;-78
2021/12/26 06:56:17;;;;;;;21.83;4.68;;;10.00;99.90;;;;;;4218244;28;20044;-81
2021/12/26 06:58:19;;;;;;;25.00;4.68;;;10.00;99.90;;;;;;4230044;28;20052;-81
2021/12/26 07:00:21;;;;;;;27.48;4.25;;;10.00;99.90;;;;;;4226288;28;20079;-80
2021/12/26 07:02:23;;;;;;;32.25;4.90;;;10.00;99.90;;;;;;4224992;28;20121;-80
2021/12/26 07:04:25;;;;;;;28.17;4.65;;;9.90;99.90;;;;;;4226832;28;20055;-79
2021/12/26 07:06:26;;;;;;;29.55;4.40;;;9.90;99.90;;;;;;4222180;28;20086;-80
2021/12/26 07:08:28;;;;;;;28.25;4.60;;;9.90;99.90;;;;;;4229685;28;20111;-80
2021/12/26 07:10:31;;;;;;;32.53;4.70;;;9.90;99.90;;;;;;4229900;28;20062;-79
2021/12/26 07:12:32;;;;;;;19.27;4.45;;;9.90;99.90;;;;;;4225092;28;20072;-80
2021/12/26 07:14:34;;;;;;;31.08;5.93;;;9.80;99.90;;;;;;4225422;28;20048;-80
2021/12/26 07:16:36;;;;;;;27.38;4.95;;;9.80;99.90;;;;;;4229869;28;20079;-79
2021/12/26 07:18:38;;;;;;;21.77;4.13;;;9.70;99.90;;;;;;4225072;28;20086;-79
2021/12/26 07:20:40;;;;;;;24.08;4.50;;;9.70;99.90;;;;;;4214421;28;20075;-80
2021/12/26 07:22:44;;;;;;;33.42;5.13;;;9.60;99.90;;;;;;4229627;28;20122;-80
2021/12/26 07:24:47;;;;;;;30.60;4.32;;;9.60;99.90;;;;;;4221468;28;20091;-80
2021/12/26 07:26:49;;;;;;;25.23;3.80;;;9.70;99.90;;;;;;4229381;28;20050;-79
2021/12/26 07:28:51;;;;;;;27.55;4.55;;;9.70;99.90;;;;;;4216655;28;20055;-79
2021/12/26 07:30:53;;;;;;;27.95;3.67;;;9.60;99.90;;;;;;4229086;28;20078;-81
2021/12/26 07:32:55;;;;;;;21.55;3.75;;;9.60;99.90;;;;;;4223823;28;21350;-78
2021/12/26 07:34:58;;;;;;;28.85;3.92;;;9.60;99.90;;;;;;4206192;28;20621;-79
2021/12/26 07:37:01;;;;;;;25.25;3.78;;;9.50;99.90;;;;;;4215808;28;20140;-79
2021/12/26 07:39:04;;;;;;;26.65;4.45;;;9.60;99.90;;;;;;4216101;28;20155;-79
2021/12/26 07:41:10;;;;;;;24.73;4.22;;;9.60;99.90;;;;;;4215884;28;20052;-79
2021/12/26 07:43:12;;;;;;;20.85;3.58;;;9.50;99.90;;;;;;4216256;28;20076;-80
2021/12/26 07:45:14;;;;;;;31.30;3.35;;;9.50;99.90;;;;;;4214237;28;20079;-78
2021/12/26 07:47:16;;;;;;;14.00;2.38;;;9.50;99.90;;;;;;4215755;28;20486;-80
2021/12/26 07:49:23;;;;;;;26.80;4.07;;;9.50;99.90;;;;;;4217732;28;20153;-79
2021/12/26 07:51:25;;;;;;;17.90;2.83;;;9.40;99.90;;;;;;4232098;28;20044;-78
2021/12/26 07:53:27;;;;;;;27.63;2.90;;;9.40;99.90;;;;;;4232934;28;20123;-80
2021/12/26 07:55:30;;;;;;;19.50;2.90;;;9.40;99.90;;;;;;4232908;28;20048;-80
2021/12/26 07:57:32;;;;;;;26.60;3.28;;;9.40;99.90;;;;;;4232891;28;20526;-79
2021/12/26 07:59:35;;;;;;;25.85;3.00;;;9.40;99.90;;;;;;4215468;28;20079;-77
2021/12/26 08:01:37;;;;;;;20.90;3.55;;;9.40;99.90;;;;;;4232274;28;20626;-81
2021/12/26 08:03:40;;;;;;;22.20;2.58;;;9.40;99.90;;;;;;4233342;28;20081;-81
2021/12/26 08:05:42;;;;;;;19.23;2.88;;;9.40;99.90;;;;;;4229828;28;20550;-79
2021/12/26 08:07:44;;;;;;;27.20;3.05;;;9.50;99.90;;;;;;4223031;28;20079;-79
2021/12/26 08:09:46;;;;;;;36.10;3.90;;;9.40;99.90;;;;;;4198938;28;20072;-80
2021/12/26 08:11:48;;;;;;;29.10;3.80;;;9.40;99.90;;;;;;4205941;28;20114;-80
2021/12/26 08:13:50;;;;;;;29.98;2.72;;;9.30;99.90;;;;;;4198489;28;20076;-79
2021/12/26 08:15:52;;;;;;;25.48;3.70;;;9.40;99.90;;;;;;4198378;28;20591;-80
2021/12/26 08:17:53;;;;;;;29.10;4.15;;;9.30;99.90;;;;;;4220530;28;20526;-79
2021/12/26 08:19:56;;;;;;;26.88;6.38;;;9.30;99.90;;;;;;4217439;28;20513;-79
2021/12/26 08:21:59;;;;;;;28.67;8.18;;;9.30;99.90;;;;;;4214191;28;20067;-80
2021/12/26 08:24:02;;;;;;;57.72;20.73;;;9.30;99.90;;;;;;4231843;28;20050;-80
2021/12/26 08:26:09;;;;;;;113.85;38.95;;;9.30;99.90;;;;;;4231948;28;20044;-79
2021/12/26 08:28:14;;;;;;;78.05;27.58;;;9.30;99.90;;;;;;4232176;28;20118;-81
2021/12/26 08:30:16;;;;;;;59.75;22.92;;;9.30;99.90;;;;;;4232333;28;20491;-80
2021/12/26 08:32:19;;;;;;;40.40;11.45;;;9.30;99.90;;;;;;4226375;28;20538;-80
2021/12/26 08:34:22;;;;;;;28.98;6.18;;;9.30;99.90;;;;;;4212764;28;20599;-80
2021/12/26 08:36:24;;;;;;;46.30;12.63;;;9.40;99.90;;;;;;4200436;28;20526;-79
2021/12/26 08:38:26;;;;;;;28.25;10.70;;;9.30;99.90;;;;;;4197849;28;20143;-80
2021/12/26 08:40:28;;;;;;;22.83;4.75;;;9.30;99.90;;;;;;4199369;28;20074;-79
2021/12/26 08:42:30;;;;;;;24.92;6.10;;;9.30;99.90;;;;;;4223822;28;20589;-79
2021/12/26 08:44:33;;;;;;;38.10;13.15;;;9.30;99.90;;;;;;4214907;28;20098;-81
2021/12/26 08:46:36;;;;;;;27.23;3.50;;;9.20;99.90;;;;;;4215186;28;20059;-79
2021/12/26 08:48:40;;;;;;;28.75;11.80;;;9.20;99.90;;;;;;4214844;28;20119;-80
2021/12/26 08:50:43;;;;;;;35.38;6.75;;;9.20;99.90;;;;;;4213253;28;20082;-80
2021/12/26 08:52:45;;;;;;;24.42;3.45;;;9.20;99.90;;;;;;4214609;28;20084;-79
2021/12/26 08:54:47;;;;;;;27.98;5.22;;;9.20;99.90;;;;;;4214483;28;20044;-79
2021/12/26 08:56:49;;;;;;;23.65;3.28;;;9.20;99.90;;;;;;4219506;28;20084;-79
2021/12/26 08:58:51;;;;;;;34.80;6.53;;;9.20;99.90;;;;;;4222354;28;20071;-78
2021/12/26 09:00:55;;;;;;;23.70;3.63;;;9.20;99.90;;;;;;4214950;28;20055;-78
2021/12/26 09:02:57;;;;;;;36.53;5.80;;;9.30;99.90;;;;;;4214921;28;20093;-80
2021/12/26 09:04:59;;;;;;;44.97;11.45;;;9.30;99.90;;;;;;4213139;28;20048;-79
2021/12/26 09:07:01;;;;;;;37.42;9.32;;;9.30;99.90;;;;;;4214320;28;20408;-82
2021/12/26 09:09:04;;;;;;;42.50;8.80;;;9.30;99.90;;;;;;4214425;28;20067;-81
2021/12/26 09:11:06;;;;;;;31.55;6.90;;;9.30;99.90;;;;;;4214601;28;20154;-79
2021/12/26 09:13:08;;;;;;;44.33;7.65;;;9.30;99.90;;;;;;4231196;28;20130;-80
2021/12/26 09:15:13;;;;;;;28.73;6.72;;;9.30;99.90;;;;;;4218345;28;20120;-77
2021/12/26 09:17:15;;;;;;;34.05;5.47;;;9.30;99.90;;;;;;4217103;28;20101;-79
2021/12/26 09:19:17;;;;;;;35.53;7.60;;;9.40;99.90;;;;;;4213507;28;20074;-79
2021/12/26 09:21:19;;;;;;;42.25;5.82;;;9.40;99.90;;;;;;4225303;28;20079;-79
2021/12/26 09:23:21;;;;;;;25.25;4.25;;;9.50;99.90;;;;;;4231694;28;20145;-79
2021/12/26 09:25:23;;;;;;;33.13;6.03;;;9.50;99.90;;;;;;4225868;28;20052;-80
2021/12/26 09:27:24;;;;;;;29.90;3.55;;;9.50;99.90;;;;;;4219483;28;20103;-79
2021/12/26 09:29:27;;;;;;;32.65;4.05;;;9.60;99.90;;;;;;4214392;28;20503;-80
2021/12/26 09:31:29;;;;;;;31.40;4.38;;;9.60;99.90;;;;;;4197469;28;20451;-79
2021/12/26 09:33:31;;;;;;;31.08;3.92;;;9.70;99.90;;;;;;4227314;28;20071;-78
2021/12/26 09:35:33;;;;;;;36.78;5.32;;;9.80;99.90;;;;;;4212834;28;20093;-80
2021/12/26 09:37:36;;;;;;;32.70;4.57;;;9.90;99.90;;;;;;4213362;28;20130;-78
2021/12/26 09:39:40;;;;;;;26.60;4.43;;;9.90;99.90;;;;;;4214066;28;20087;-79
2021/12/26 09:41:42;;;;;;;34.63;4.97;;;10.00;99.90;;;;;;4208234;28;20094;-78
2021/12/26 09:43:44;;;;;;;40.33;4.43;;;10.10;99.90;;;;;;4207314;28;20185;-79
2021/12/26 09:45:46;;;;;;;26.50;3.97;;;10.20;99.90;;;;;;4216213;28;20122;-79
2021/12/26 09:47:50;;;;;;;29.40;3.78;;;10.20;99.90;;;;;;4214356;28;20136;-78
2021/12/26 09:49:51;;;;;;;20.02;2.85;;;10.30;99.90;;;;;;4207677;28;20052;-77
2021/12/26 09:51:54;;;;;;;34.47;3.72;;;10.30;99.90;;;;;;4213859;28;20047;-79
2021/12/26 09:53:55;;;;;;;24.98;3.55;;;10.30;99.90;;;;;;4213787;28;20040;-79
2021/12/26 09:56:02;;;;;;;21.33;3.08;;;10.30;99.90;;;;;;4217357;28;20102;-80
2021/12/26 09:58:04;;;;;;;28.48;3.60;;;10.30;99.90;;;;;;4227573;28;20075;-79
2021/12/26 10:00:38;;;;;;;29.35;3.97;;;10.40;99.90;;;;;;4231767;28;20079;-79
2021/12/26 10:02:40;;;;;;;26.58;3.70;;;10.40;99.90;;;;;;4204786;28;20052;-79
2021/12/26 10:04:43;;;;;;;22.67;2.78;;;10.50;99.90;;;;;;4199911;28;20095;-79
2021/12/26 10:06:57;;;;;;;27.40;3.53;;;10.50;99.90;;;;;;4216353;28;20523;-79
2021/12/26 10:09:09;;;;;;;22.33;3.75;;;10.50;99.90;;;;;;4213920;28;20075;-79
2021/12/26 10:11:17;;;;;;;30.48;3.35;;;10.50;99.90;;;;;;4215842;28;20056;-80
2021/12/26 10:13:37;;;;;;;27.02;3.63;;;10.50;99.90;;;;;;4214224;28;20209;-81
2021/12/26 10:15:48;;;;;;;31.88;5.03;;;10.50;99.90;;;;;;4213657;28;20044;-80
2021/12/26 10:17:50;;;;;;;43.45;11.10;;;10.50;99.90;;;;;;4213986;28;20055;-79
2021/12/26 10:20:00;;;;;;;28.50;6.03;;;10.50;99.90;;;;;;4213227;28;20079;-79
2021/12/26 10:22:04;;;;;;;26.25;4.38;;;10.50;99.90;;;;;;4212803;28;20040;-78
2021/12/26 10:24:25;;;;;;;19.38;3.58;;;10.50;99.90;;;;;;4215495;28;20048;-79
2021/12/26 10:26:30;;;;;;;25.23;4.57;;;10.60;99.90;;;;;;4218910;28;20097;-81
2021/12/26 10:28:32;;;;;;;;;;;10.60;99.90;;;;;;4214448;28;20048;-79
2021/12/26 10:30:42;;;;;;;22.58;4.18;;;10.70;99.90;;;;;;4215329;28;19959;-79
2021/12/26 10:32:44;;;;;;;29.17;3.85;;;10.80;99.90;;;;;;4214188;28;20101;-80
2021/12/26 10:34:47;;;;;;;24.65;3.60;;;10.90;99.90;;;;;;4212827;28;20126;-80
2021/12/26 10:36:52;;;;;;;29.67;3.30;;;11.00;99.90;;;;;;4203879;28;20044;-78
2021/12/26 10:39:12;;;;;;;25.25;3.90;;;11.10;99.90;;;;;;4212986;28;20056;-78
2021/12/26 10:41:25;;;;;;;22.45;4.00;;;11.20;99.90;;;;;;4197309;28;20044;-78